Time;durP1;ratioP1;P1;durP2;ratioP2;P2;SDS_P1;SDS_P2;PMS_P1;PMS_P2;Temp;Humidity;BMP_temperature;BMP_pressure;BME280_temperature;BME280_humidity;BME280_pressure;Samples;Min_cycle;Max_cycle;Signal;HPM_P1;HPM_P2
2023/01/20 00:01:37;;;;;;;7.10;4.80;;;1.30;99.90;;;;;;5059641;28;20119;-77
2023/01/20 00:04:03;;;;;;;9.02;6.00;;;1.30;99.90;;;;;;5060312;28;20037;-76
2023/01/20 00:06:29;;;;;;;9.77;5.57;;;1.40;99.90;;;;;;5062962;28;20110;-76
2023/01/20 00:08:56;;;;;;;9.10;5.65;;;1.40;99.90;;;;;;5063768;28;20354;-76
2023/01/20 00:11:25;;;;;;;8.88;5.53;;;1.40;99.90;;;;;;5061452;28;20119;-77
2023/01/20 00:13:56;;;;;;;10.02;6.05;;;1.40;99.90;;;;;;5051857;28;20486;-77
2023/01/20 00:16:22;;;;;;;10.05;5.85;;;1.40;99.90;;;;;;5055556;28;20040;-77
2023/01/20 00:18:48;;;;;;;10.15;5.95;;;1.40;99.90;;;;;;5048645;28;20047;-76
2023/01/20 00:21:15;;;;;;;11.70;6.28;;;2.40;99.90;;;;;;5063445;28;20036;-76
2023/01/20 00:23:42;;;;;;;10.73;6.13;;;1.40;99.90;;;;;;5051993;28;20051;-76
2023/01/20 00:26:16;;;;;;;8.90;5.95;;;1.40;99.90;;;;;;5058035;28;20171;-77
2023/01/20 00:28:42;;;;;;;11.20;6.20;;;1.40;99.90;;;;;;5056056;28;20497;-77
2023/01/20 00:31:20;;;;;;;11.60;6.57;;;1.40;99.90;;;;;;5068905;28;20052;-77
2023/01/20 00:33:47;;;;;;;10.45;6.18;;;1.50;99.90;;;;;;5053663;28;20080;-77
2023/01/20 00:36:15;;;;;;;12.80;6.45;;;1.40;99.90;;;;;;5053268;28;20465;-77
2023/01/20 00:38:41;;;;;;;12.57;6.55;;;1.40;99.90;;;;;;5063479;28;20115;-77
2023/01/20 00:41:06;;;;;;;11.75;6.53;;;1.40;99.90;;;;;;5061985;28;20482;-77
2023/01/20 00:43:32;;;;;;;11.65;6.60;;;1.40;99.90;;;;;;5060223;28;20536;-77
2023/01/20 00:45:58;;;;;;;13.20;7.00;;;1.50;99.90;;;;;;5058631;28;20040;-77
2023/01/20 00:48:24;;;;;;;10.75;6.88;;;1.40;99.90;;;;;;5068908;28;20040;-77
2023/01/20 00:50:49;;;;;;;12.07;6.78;;;1.40;99.90;;;;;;5054300;28;20060;-77
2023/01/20 00:53:15;;;;;;;10.82;6.47;;;1.40;99.90;;;;;;5038487;28;20041;-77
2023/01/20 00:55:41;;;;;;;11.25;6.20;;;1.40;99.90;;;;;;5060169;28;20044;-77
2023/01/20 00:58:06;;;;;;;9.48;6.10;;;1.40;99.90;;;;;;5070342;28;20049;-77
2023/01/20 01:00:32;;;;;;;10.35;6.00;;;1.40;99.90;;;;;;5066869;28;20043;-77
2023/01/20 01:02:58;;;;;;;9.75;6.18;;;1.40;99.90;;;;;;5065962;28;20048;-77
2023/01/20 01:05:23;;;;;;;10.57;6.53;;;1.40;99.90;;;;;;5043214;28;20566;-77
2023/01/20 01:07:49;;;;;;;11.60;7.05;;;1.40;99.90;;;;;;5053864;28;20092;-79
2023/01/20 01:10:15;;;;;;;13.20;7.20;;;1.40;99.90;;;;;;5054921;28;20036;-78
2023/01/20 01:12:41;;;;;;;12.00;7.30;;;1.30;99.90;;;;;;5054970;28;20052;-78
2023/01/20 01:15:07;;;;;;;12.98;8.13;;;1.30;99.90;;;;;;5062085;28;20032;-78
2023/01/20 01:17:34;;;;;;;14.73;8.43;;;1.30;99.90;;;;;;5057117;28;20048;-78
2023/01/20 01:20:00;;;;;;;13.45;8.07;;;1.30;99.90;;;;;;5059883;28;20076;-78
2023/01/20 01:22:26;;;;;;;14.00;8.20;;;1.30;99.90;;;;;;5067566;28;20076;-78
2023/01/20 01:24:51;;;;;;;13.63;8.35;;;1.40;99.90;;;;;;5022061;28;20037;-78
2023/01/20 01:27:17;;;;;;;13.95;7.68;;;1.30;99.90;;;;;;5034608;28;20033;-78
2023/01/20 01:29:42;;;;;;;14.80;8.43;;;1.30;99.90;;;;;;5062326;28;20044;-78
2023/01/20 01:32:11;;;;;;;16.00;8.95;;;1.30;99.90;;;;;;5060907;28;20056;-78
2023/01/20 01:34:37;;;;;;;16.95;8.82;;;1.30;99.90;;;;;;5033324;28;20033;-78
2023/01/20 01:37:02;;;;;;;16.80;9.43;;;1.30;99.90;;;;;;5053484;28;20098;-78
2023/01/20 01:39:28;;;;;;;14.65;8.88;;;1.30;99.90;;;;;;5055949;28;20102;-78
2023/01/20 01:41:53;;;;;;;17.77;9.73;;;1.20;99.90;;;;;;5065538;28;20456;-78
2023/01/20 01:44:19;;;;;;;17.15;9.93;;;1.20;99.90;;;;;;5039886;28;20033;-78
2023/01/20 01:46:45;;;;;;;17.00;10.43;;;1.20;99.90;;;;;;5047093;28;20063;-78
2023/01/20 01:49:22;;;;;;;17.40;8.90;;;1.20;99.90;;;;;;5053911;28;20044;-78
2023/01/20 01:52:00;;;;;;;15.20;8.80;;;1.20;99.90;;;;;;5055552;28;20055;-78
2023/01/20 01:54:31;;;;;;;17.38;10.57;;;1.20;99.90;;;;;;5046544;28;20044;-78
2023/01/20 01:56:56;;;;;;;15.80;9.52;;;1.20;99.90;;;;;;5063004;28;20041;-78
2023/01/20 01:59:22;;;;;;;17.23;9.68;;;1.20;99.90;;;;;;5063233;28;20036;-78
2023/01/20 02:01:50;;;;;;;18.63;10.75;;;1.20;99.90;;;;;;5036485;28;20051;-78
2023/01/20 02:04:22;;;;;;;16.25;9.95;;;1.20;99.90;;;;;;5046013;28;20033;-78
2023/01/20 02:07:10;;;;;;;17.90;10.25;;;1.20;99.90;;;;;;5058735;28;20064;-78
2023/01/20 02:09:37;;;;;;;16.75;9.05;;;1.20;99.90;;;;;;5059006;28;20048;-78
2023/01/20 02:12:07;;;;;;;19.45;10.02;;;1.20;99.90;;;;;;5051429;28;20124;-78
2023/01/20 02:14:43;;;;;;;17.48;10.00;;;1.20;99.90;;;;;;5065265;28;20032;-78
2023/01/20 02:17:12;;;;;;;17.17;9.75;;;1.20;99.90;;;;;;5059285;28;20515;-78
2023/01/20 02:20:02;;;;;;;16.60;9.95;;;1.20;99.90;;;;;;5065078;28;20535;-78
2023/01/20 02:23:01;;;;;;;20.20;10.32;;;1.20;99.90;;;;;;5049893;28;20041;-78
2023/01/20 02:26:04;;;;;;;20.10;11.18;;;1.20;99.90;;;;;;5046626;28;20036;-78
2023/01/20 02:28:48;;;;;;;16.83;9.23;;;1.20;99.90;;;;;;5057356;28;20040;-78
2023/01/20 02:31:24;;;;;;;20.08;10.15;;;1.20;99.90;;;;;;5073990;28;20028;-78
2023/01/20 02:34:21;;;;;;;18.38;10.57;;;1.20;99.90;;;;;;5051313;28;20559;-78
2023/01/20 02:36:54;;;;;;;19.98;10.57;;;1.20;99.90;;;;;;5042318;28;20552;-78
2023/01/20 02:39:47;;;;;;;18.05;10.43;;;1.20;99.90;;;;;;5050557;28;20098;-78
2023/01/20 02:42:31;;;;;;;17.80;9.65;;;1.20;99.90;;;;;;5049031;28;20119;-78
2023/01/20 02:45:18;;;;;;;20.27;10.50;;;1.20;99.90;;;;;;5065421;28;20437;-78
2023/01/20 02:48:22;;;;;;;19.63;10.27;;;1.20;99.90;;;;;;5047255;28;20505;-78
2023/01/20 02:51:00;;;;;;;17.92;9.73;;;1.20;99.90;;;;;;5057308;28;20037;-78
2023/01/20 02:53:34;;;;;;;19.58;10.40;;;1.20;99.90;;;;;;5041715;28;20044;-78
2023/01/20 02:55:59;;;;;;;20.02;11.02;;;1.20;99.90;;;;;;5056591;28;20041;-78
2023/01/20 02:58:39;;;;;;;16.75;10.00;;;1.20;99.90;;;;;;5054922;28;20120;-78
2023/01/20 03:01:30;;;;;;;19.67;10.60;;;1.20;99.90;;;;;;5061709;28;20033;-78
2023/01/20 03:03:58;;;;;;;20.95;10.95;;;1.20;99.90;;;;;;5045871;28;20042;-78
2023/01/20 03:06:29;;;;;;;21.52;11.05;;;1.20;99.90;;;;;;5049223;28;20401;-78
2023/01/20 03:09:00;;;;;;;21.10;10.65;;;1.10;99.90;;;;;;5053280;28;20147;-78
2023/01/20 03:11:30;;;;;;;20.60;10.70;;;1.20;99.90;;;;;;5062618;28;20047;-78
2023/01/20 03:14:06;;;;;;;19.75;10.32;;;1.10;99.90;;;;;;5056477;28;20067;-78
2023/01/20 03:16:32;;;;;;;20.35;10.93;;;1.10;99.90;;;;;;5059194;28;20493;-78
2023/01/20 03:18:58;;;;;;;19.70;9.93;;;1.20;99.90;;;;;;5053332;28;20052;-78
2023/01/20 03:21:23;;;;;;;19.33;9.90;;;1.20;99.90;;;;;;5056171;28;20041;-78
2023/01/20 03:23:53;;;;;;;18.73;10.32;;;1.20;99.90;;;;;;5061460;28;20040;-78
2023/01/20 03:26:21;;;;;;;18.95;10.20;;;1.20;99.90;;;;;;5055325;28;20040;-78
2023/01/20 03:28:48;;;;;;;17.55;9.30;;;1.20;99.90;;;;;;5064999;28;20098;-78
2023/01/20 03:31:21;;;;;;;22.48;10.50;;;1.10;99.90;;;;;;5067537;28;20067;-78
2023/01/20 03:33:50;;;;;;;18.17;9.60;;;1.20;99.90;;;;;;5068375;28;20112;-78
2023/01/20 03:36:19;;;;;;;17.52;9.40;;;1.10;99.90;;;;;;5062767;28;20080;-78
2023/01/20 03:38:45;;;;;;;18.83;10.23;;;1.20;99.90;;;;;;5051418;28;20443;-78
2023/01/20 03:41:23;;;;;;;18.67;10.43;;;1.10;99.90;;;;;;5070009;28;20400;-78
2023/01/20 03:43:59;;;;;;;19.33;10.07;;;1.20;99.90;;;;;;5058148;28;20497;-78
2023/01/20 03:46:37;;;;;;;17.88;9.70;;;1.20;99.90;;;;;;5069935;28;20120;-79
2023/01/20 03:49:29;;;;;;;19.80;10.07;;;1.10;99.90;;;;;;5060124;28;20374;-79
2023/01/20 03:52:33;;;;;;;18.75;9.88;;;1.20;99.90;;;;;;5054444;28;20048;-79
2023/01/20 03:55:19;;;;;;;18.48;9.35;;;1.10;99.90;;;;;;4973765;28;20058;-79
2023/01/20 03:58:04;;;;;;;19.10;9.38;;;1.10;99.90;;;;;;5029883;28;20405;-79
2023/01/20 04:00:36;;;;;;;18.38;9.68;;;1.20;99.90;;;;;;5063774;28;20039;-79
2023/01/20 04:03:06;;;;;;;18.25;10.32;;;1.10;99.90;;;;;;5066784;28;20041;-79
2023/01/20 04:05:33;;;;;;;21.40;10.20;;;1.10;99.90;;;;;;5065288;28;20488;-79
2023/01/20 04:08:02;;;;;;;18.83;10.68;;;1.10;99.90;;;;;;5065636;28;20115;-79
2023/01/20 04:10:30;;;;;;;20.02;10.98;;;1.20;99.90;;;;;;5058451;28;20458;-79
2023/01/20 04:12:55;;;;;;;19.63;10.77;;;1.10;99.90;;;;;;5061003;28;20045;-79
2023/01/20 04:15:23;;;;;;;21.33;11.50;;;1.10;99.90;;;;;;5062512;28;20050;-79
2023/01/20 04:17:48;;;;;;;19.23;10.48;;;1.10;99.90;;;;;;5065139;28;20131;-78
2023/01/20 04:20:14;;;;;;;20.67;10.98;;;1.10;99.90;;;;;;5060284;28;20119;-78
2023/01/20 04:22:49;;;;;;;22.33;11.05;;;1.10;99.90;;;;;;5065079;28;20033;-78
2023/01/20 04:25:26;;;;;;;22.10;11.60;;;1.10;99.90;;;;;;5057452;28;20047;-79
2023/01/20 04:27:51;;;;;;;23.23;12.13;;;1.10;99.90;;;;;;5065126;28;20037;-79
2023/01/20 04:30:17;;;;;;;21.83;11.38;;;1.20;99.90;;;;;;5055696;28;20091;-78
2023/01/20 04:32:43;;;;;;;24.27;12.90;;;1.10;99.90;;;;;;5055188;28;20094;-78
2023/01/20 04:35:12;;;;;;;23.92;12.88;;;1.10;99.90;;;;;;5069283;28;20044;-78
2023/01/20 04:37:37;;;;;;;25.98;12.77;;;1.20;99.90;;;;;;5051205;28;20120;-78
2023/01/20 04:40:03;;;;;;;26.60;12.40;;;1.30;99.90;;;;;;5053271;28;20045;-78
2023/01/20 04:42:29;;;;;;;28.25;13.43;;;1.10;99.90;;;;;;5041844;28;20139;-78
2023/01/20 04:44:54;;;;;;;25.20;13.48;;;1.40;99.90;;;;;;5062380;28;20111;-79
2023/01/20 04:47:20;;;;;;;26.20;13.65;;;1.10;99.90;;;;;;5060064;28;20177;-78
2023/01/20 04:49:46;;;;;;;23.98;13.38;;;1.10;99.90;;;;;;5047088;28;20460;-78
2023/01/20 04:52:11;;;;;;;25.85;13.50;;;1.10;99.90;;;;;;5068054;28;20049;-78
2023/01/20 04:54:37;;;;;;;27.63;13.68;;;1.20;99.90;;;;;;5063916;28;20036;-79
2023/01/20 04:57:02;;;;;;;27.17;14.05;;;1.20;99.90;;;;;;5062544;28;20471;-79
2023/01/20 04:59:28;;;;;;;32.78;14.93;;;1.10;99.90;;;;;;5060722;28;20043;-79
2023/01/20 05:01:53;;;;;;;29.98;15.18;;;1.20;99.90;;;;;;5061334;28;20099;-79
2023/01/20 05:04:19;;;;;;;29.95;14.15;;;1.20;99.90;;;;;;5062728;28;20119;-78
2023/01/20 05:06:45;;;;;;;31.00;15.25;;;1.20;99.90;;;;;;5063996;28;20114;-79
2023/01/20 05:09:15;;;;;;;29.85;15.00;;;1.20;99.90;;;;;;5052727;28;20094;-79
2023/01/20 05:11:41;;;;;;;29.20;15.18;;;1.20;99.90;;;;;;5049289;28;20069;-78
2023/01/20 05:14:07;;;;;;;28.15;14.85;;;1.20;99.90;;;;;;5055658;28;20434;-78
2023/01/20 05:16:33;;;;;;;31.48;15.63;;;1.20;99.90;;;;;;5055347;28;20067;-78
2023/01/20 05:18:59;;;;;;;32.05;15.23;;;1.20;99.90;;;;;;5060656;28;20076;-79
2023/01/20 05:21:25;;;;;;;30.95;15.20;;;1.20;99.90;;;;;;5054880;28;20036;-79
2023/01/20 05:23:54;;;;;;;30.85;15.00;;;1.20;99.90;;;;;;5065241;28;20040;-79
2023/01/20 05:26:22;;;;;;;32.88;16.08;;;1.20;99.90;;;;;;5051280;28;20458;-79
2023/01/20 05:28:47;;;;;;;36.72;17.50;;;1.20;99.90;;;;;;5051361;28;20124;-79
2023/01/20 05:31:13;;;;;;;32.20;15.85;;;1.20;99.90;;;;;;5064240;28;20136;-79
2023/01/20 05:33:39;;;;;;;34.05;16.30;;;1.20;99.90;;;;;;5046806;28;20028;-79
2023/01/20 05:36:12;;;;;;;32.00;15.65;;;1.20;99.90;;;;;;5036850;28;20040;-79
2023/01/20 05:38:38;;;;;;;34.72;16.35;;;1.20;99.90;;;;;;5033435;28;20434;-79
2023/01/20 05:41:06;;;;;;;32.10;16.40;;;1.20;99.90;;;;;;5053845;28;20095;-79
2023/01/20 05:43:32;;;;;;;33.13;15.95;;;1.20;99.90;;;;;;5054259;28;20033;-79
2023/01/20 05:45:57;;;;;;;34.63;16.13;;;1.30;99.90;;;;;;5055203;28;20040;-79
2023/01/20 05:48:24;;;;;;;31.17;16.35;;;1.30;99.90;;;;;;5059871;28;20036;-79
2023/01/20 05:50:50;;;;;;;31.60;16.35;;;1.30;99.90;;;;;;5066798;28;20048;-79
2023/01/20 05:53:16;;;;;;;34.20;16.13;;;1.30;99.90;;;;;;5050276;28;20033;-79
2023/01/20 05:55:42;;;;;;;36.80;16.92;;;1.30;99.90;;;;;;5052718;28;20436;-79
2023/01/20 05:58:07;;;;;;;35.70;17.15;;;1.30;99.90;;;;;;5050665;28;20040;-79
2023/01/20 06:00:33;;;;;;;32.30;16.33;;;1.30;99.90;;;;;;5042802;28;20059;-78
2023/01/20 06:02:59;;;;;;;40.38;18.55;;;1.30;99.90;;;;;;5065761;28;20068;-78
2023/01/20 06:05:25;;;;;;;30.75;16.20;;;1.30;99.90;;;;;;5052951;28;20036;-79
2023/01/20 06:07:50;;;;;;;33.85;16.77;;;1.40;99.90;;;;;;5061762;28;20041;-79
2023/01/20 06:10:16;;;;;;;37.33;16.83;;;1.30;99.90;;;;;;5057488;28;20059;-79
2023/01/20 06:12:42;;;;;;;35.13;17.85;;;1.30;99.90;;;;;;5067503;28;20028;-79
2023/01/20 06:15:09;;;;;;;38.03;18.83;;;1.40;99.90;;;;;;5051305;28;20041;-79
2023/01/20 06:17:34;;;;;;;39.50;18.23;;;1.40;99.90;;;;;;5056307;28;20554;-78
2023/01/20 06:20:00;;;;;;;39.38;18.48;;;1.40;99.90;;;;;;5067908;28;20044;-78
2023/01/20 06:22:26;;;;;;;36.03;18.23;;;1.40;99.90;;;;;;5060753;28;20117;-79
2023/01/20 06:24:52;;;;;;;38.83;18.00;;;1.40;99.90;;;;;;5071508;28;20044;-79
2023/01/20 06:27:18;;;;;;;35.13;18.00;;;1.40;99.90;;;;;;5063339;28;20041;-79
2023/01/20 06:29:44;;;;;;;34.00;18.60;;;1.40;99.90;;;;;;5062878;28;20116;-79
2023/01/20 06:32:10;;;;;;;39.60;18.58;;;1.40;99.90;;;;;;5063245;28;20155;-78
2023/01/20 06:34:35;;;;;;;40.13;18.83;;;1.40;99.90;;;;;;5057139;28;20540;-78
2023/01/20 06:37:02;;;;;;;35.67;16.88;;;1.40;99.90;;;;;;5036710;28;20040;-79
2023/01/20 06:39:28;;;;;;;40.92;18.60;;;1.40;99.90;;;;;;5042649;28;20040;-78
2023/01/20 06:41:58;;;;;;;40.50;18.48;;;1.40;99.90;;;;;;5043516;28;20486;-78
2023/01/20 06:44:24;;;;;;;39.88;18.90;;;1.40;99.90;;;;;;5066887;28;20051;-79
2023/01/20 06:46:50;;;;;;;39.17;19.25;;;1.40;99.90;;;;;;5054521;28;20482;-79
2023/01/20 06:49:16;;;;;;;43.45;20.27;;;1.30;99.90;;;;;;5063259;28;20028;-78
2023/01/20 06:51:42;;;;;;;39.03;19.70;;;1.30;99.90;;;;;;5061464;28;20040;-79
2023/01/20 06:54:07;;;;;;;41.38;20.17;;;1.30;99.90;;;;;;5060781;28;20049;-78
2023/01/20 06:56:33;;;;;;;41.13;19.42;;;1.30;99.90;;;;;;5060898;28;20064;-78
2023/01/20 06:58:59;;;;;;;42.40;20.50;;;1.30;99.90;;;;;;5062381;28;20040;-78
2023/01/20 07:01:27;;;;;;;45.40;20.98;;;1.30;99.90;;;;;;5061783;28;20036;-78
2023/01/20 07:03:53;;;;;;;39.60;19.67;;;1.40;99.90;;;;;;5054629;28;20049;-78
2023/01/20 07:06:30;;;;;;;42.25;19.33;;;1.40;99.90;;;;;;5045742;28;20061;-78
2023/01/20 07:08:58;;;;;;;39.47;20.17;;;1.40;99.90;;;;;;5052238;28;20048;-79
2023/01/20 07:11:23;;;;;;;42.72;21.27;;;1.40;99.90;;;;;;5056769;28;20049;-78
2023/01/20 07:13:49;;;;;;;45.72;19.95;;;1.40;99.90;;;;;;5065577;28;20048;-78
2023/01/20 07:16:15;;;;;;;40.08;19.52;;;1.40;99.90;;;;;;5052716;28;20040;-78
2023/01/20 07:18:41;;;;;;;46.58;21.05;;;1.40;99.90;;;;;;5069529;28;20413;-78
2023/01/20 07:21:10;;;;;;;47.38;20.77;;;1.70;99.90;;;;;;5065100;28;20047;-78
2023/01/20 07:23:36;;;;;;;45.42;20.48;;;1.40;99.90;;;;;;5072951;28;20082;-78
2023/01/20 07:26:08;;;;;;;46.65;19.90;;;1.40;99.90;;;;;;5057500;28;20041;-78
2023/01/20 07:28:34;;;;;;;41.25;20.25;;;1.40;99.90;;;;;;5034097;28;20083;-78
2023/01/20 07:31:10;;;;;;;45.40;19.73;;;1.40;99.90;;;;;;5045827;28;20049;-78
2023/01/20 07:33:37;;;;;;;45.40;20.55;;;1.40;99.90;;;;;;5053849;28;20091;-78
2023/01/20 07:36:03;;;;;;;47.40;20.95;;;1.40;99.90;;;;;;5064607;28;20462;-77
2023/01/20 07:38:29;;;;;;;47.22;20.98;;;1.40;99.90;;;;;;5045213;28;20044;-78
2023/01/20 07:40:59;;;;;;;45.55;20.88;;;1.40;99.90;;;;;;5068095;28;20047;-78
2023/01/20 07:43:25;;;;;;;48.78;20.65;;;1.40;99.90;;;;;;5063962;28;20061;-80
2023/01/20 07:45:58;;;;;;;47.70;20.45;;;1.40;99.90;;;;;;5063821;28;20044;-78
2023/01/20 07:48:24;;;;;;;45.97;20.83;;;1.30;99.90;;;;;;5069289;28;20091;-78
2023/01/20 07:51:00;;;;;;;43.85;20.92;;;1.30;99.90;;;;;;5068383;28;20075;-78
2023/01/20 07:53:27;;;;;;;47.10;22.02;;;1.30;99.90;;;;;;5067383;28;20412;-78
2023/01/20 07:55:52;;;;;;;45.90;20.73;;;1.40;99.90;;;;;;5064770;28;20097;-78
2023/01/20 07:58:18;;;;;;;47.72;22.15;;;1.40;99.90;;;;;;5064716;28;20438;-78
2023/01/20 08:00:47;;;;;;;52.00;22.67;;;1.40;99.90;;;;;;5069026;28;20032;-78
2023/01/20 08:03:14;;;;;;;49.92;21.65;;;1.40;99.90;;;;;;5045738;28;20044;-77
2023/01/20 08:05:39;;;;;;;52.05;21.95;;;1.40;99.90;;;;;;5065823;28;20108;-77
2023/01/20 08:08:05;;;;;;;53.05;22.40;;;1.40;99.90;;;;;;5063191;28;20175;-78
2023/01/20 08:10:30;;;;;;;51.75;22.83;;;1.40;99.90;;;;;;5057137;28;20045;-78
2023/01/20 08:12:57;;;;;;;51.08;22.75;;;1.40;99.90;;;;;;5065473;28;20040;-78
2023/01/20 08:15:23;;;;;;;52.45;22.75;;;2.70;99.90;;;;;;5055566;28;20062;-78
2023/01/20 08:17:53;;;;;;;52.45;21.98;;;1.40;99.90;;;;;;5052711;28;20041;-79
2023/01/20 08:20:19;;;;;;;49.47;21.70;;;1.40;99.90;;;;;;5048540;28;20080;-77
2023/01/20 08:22:44;;;;;;;49.47;22.40;;;1.40;99.90;;;;;;5061344;28;20126;-78
2023/01/20 08:25:10;;;;;;;52.45;21.23;;;1.40;99.90;;;;;;5056707;28;20040;-78
2023/01/20 08:27:35;;;;;;;58.30;23.90;;;1.40;99.90;;;;;;5060485;28;20041;-78
2023/01/20 08:30:01;;;;;;;57.95;23.92;;;1.40;99.90;;;;;;5060383;28;20037;-78
2023/01/20 08:32:28;;;;;;;55.28;23.33;;;1.50;99.90;;;;;;5065815;28;20090;-77
2023/01/20 08:34:53;;;;;;;54.50;22.13;;;1.50;99.90;;;;;;5067744;28;20044;-76
2023/01/20 08:37:19;;;;;;;49.85;21.40;;;1.50;99.90;;;;;;5065705;28;20488;-76
2023/01/20 08:39:45;;;;;;;62.08;22.95;;;1.50;99.90;;;;;;5053625;28;20044;-76
2023/01/20 08:42:10;;;;;;;53.20;23.35;;;1.50;99.90;;;;;;5062693;28;20037;-76
2023/01/20 08:44:36;;;;;;;52.15;22.67;;;2.00;99.90;;;;;;5058956;28;20071;-76
2023/01/20 08:47:02;;;;;;;55.88;22.85;;;1.50;99.90;;;;;;5045088;28;20494;-76
2023/01/20 08:49:28;;;;;;;52.38;22.35;;;1.60;99.90;;;;;;5060376;28;20402;-77
2023/01/20 08:51:55;;;;;;;52.10;23.02;;;1.50;99.90;;;;;;5039983;28;20077;-78
2023/01/20 08:54:21;;;;;;;54.80;22.55;;;1.60;99.90;;;;;;5061602;28;20041;-76
2023/01/20 08:56:49;;;;;;;49.05;21.45;;;1.60;99.90;;;;;;5059889;28;20068;-79
2023/01/20 08:59:15;;;;;;;55.30;21.88;;;1.60;99.90;;;;;;5036323;28;20032;-79
2023/01/20 09:01:42;;;;;;;45.70;20.48;;;1.60;99.90;;;;;;5052324;28;20508;-77
2023/01/20 09:04:08;;;;;;;50.90;21.58;;;1.60;99.90;;;;;;5054656;28;20250;-78
2023/01/20 09:06:44;;;;;;;52.03;21.45;;;1.70;99.90;;;;;;5058747;28;20496;-78
2023/01/20 09:09:10;;;;;;;50.28;21.83;;;1.70;99.90;;;;;;5052922;28;20029;-79
2023/01/20 09:11:37;;;;;;;48.53;21.25;;;1.70;99.90;;;;;;5053837;28;20072;-76
2023/01/20 09:14:02;;;;;;;51.55;21.30;;;1.70;99.90;;;;;;5055969;28;20098;-77
2023/01/20 09:16:28;;;;;;;46.72;21.30;;;1.70;99.90;;;;;;5056847;28;20037;-76
2023/01/20 09:18:54;;;;;;;53.42;22.00;;;1.80;99.90;;;;;;5057205;28;20044;-80
2023/01/20 09:21:19;;;;;;;45.38;19.63;;;1.80;99.90;;;;;;5059495;28;20036;-77
2023/01/20 09:23:47;;;;;;;47.60;18.85;;;1.90;99.90;;;;;;5054529;28;20436;-77
2023/01/20 09:26:12;;;;;;;44.22;19.92;;;1.90;99.90;;;;;;5059443;28;20043;-77
2023/01/20 09:28:38;;;;;;;48.90;20.10;;;1.90;99.90;;;;;;5054182;28;20409;-77
2023/01/20 09:31:06;;;;;;;47.47;20.55;;;1.90;99.90;;;;;;5052191;28;20080;-82
2023/01/20 09:33:35;;;;;;;49.30;20.05;;;1.90;99.90;;;;;;5057372;28;20072;-76
2023/01/20 09:36:01;;;;;;;43.90;20.13;;;1.90;99.90;;;;;;5056464;28;20442;-79
2023/01/20 09:44:28;;;;;;;43.83;19.52;;;1.90;99.90;;;;;;5071177;28;20528;-76
2023/01/20 09:47:19;;;;;;;48.40;20.23;;;1.90;99.90;;;;;;5055383;28;20477;-77
2023/01/20 09:53:04;;;;;;;41.28;17.98;;;1.90;99.90;;;;;;5054107;28;20471;-80
2023/01/20 09:55:58;;;;;;;41.38;17.63;;;1.90;99.90;;;;;;5031466;28;20049;-77
2023/01/20 09:58:48;;;;;;;43.70;19.27;;;2.00;99.90;;;;;;5055428;28;20086;-77
2023/01/20 10:01:20;;;;;;;44.00;17.15;;;1.90;99.90;;;;;;5046176;28;20068;-77
2023/01/20 10:03:58;;;;;;;37.85;17.48;;;2.00;99.90;;;;;;5052164;28;20152;-77
2023/01/20 10:06:36;;;;;;;44.25;18.23;;;2.00;99.90;;;;;;5048010;28;20048;-77
2023/01/20 10:09:40;;;;;;;40.30;17.58;;;2.00;99.90;;;;;;5049974;28;20175;-78
2023/01/20 10:12:09;;;;;;;41.13;18.10;;;2.00;99.90;;;;;;5051392;28;20064;-77
2023/01/20 10:14:43;;;;;;;45.20;17.92;;;2.40;99.90;;;;;;5045183;28;20038;-79
2023/01/20 10:17:29;;;;;;;37.60;17.02;;;2.00;99.90;;;;;;5035333;28;20047;-81
2023/01/20 10:20:08;;;;;;;39.63;16.65;;;2.10;99.90;;;;;;5050520;28;20041;-77
2023/01/20 10:22:59;;;;;;;36.80;16.25;;;2.10;99.90;;;;;;5048691;28;20115;-77
2023/01/20 10:25:38;;;;;;;36.95;16.35;;;2.10;99.90;;;;;;5043798;28;20038;-76
2023/01/20 10:28:41;;;;;;;37.35;16.10;;;2.10;99.90;;;;;;5069243;28;20473;-77
2023/01/20 10:31:11;;;;;;;34.20;16.00;;;2.20;99.90;;;;;;5038425;28;20413;-76
2023/01/20 10:33:42;;;;;;;36.65;16.30;;;2.20;99.90;;;;;;5067919;28;20082;-76
2023/01/20 10:36:20;;;;;;;33.22;15.93;;;2.20;99.90;;;;;;5065637;28;20140;-75
2023/01/20 10:39:04;;;;;;;33.63;15.77;;;2.20;99.90;;;;;;5065854;28;20048;-76
2023/01/20 10:41:29;;;;;;;34.03;13.95;;;2.20;99.90;;;;;;5036949;28;20037;-76
2023/01/20 10:43:56;;;;;;;33.15;15.48;;;2.20;99.90;;;;;;5037038;28;20408;-76
2023/01/20 10:46:36;;;;;;;33.05;14.30;;;2.20;99.90;;;;;;5054391;28;20033;-76
2023/01/20 10:49:21;;;;;;;32.75;15.43;;;2.30;99.90;;;;;;5037458;28;20131;-76
2023/01/20 10:52:28;;;;;;;32.70;14.52;;;2.60;99.90;;;;;;5050337;28;20095;-78
2023/01/20 10:55:21;;;;;;;34.53;15.20;;;2.30;99.90;;;;;;4961513;28;20555;-76
2023/01/20 10:57:51;;;;;;;32.95;14.80;;;2.30;99.90;;;;;;5052004;28;20033;-78
2023/01/20 11:00:24;;;;;;;32.63;14.60;;;2.30;99.90;;;;;;5052845;28;20033;-76
2023/01/20 11:02:51;;;;;;;;;;;2.30;99.90;;;;;;5047279;28;20513;-81
2023/01/20 11:05:18;;;;;;;37.50;15.40;;;2.30;99.90;;;;;;5053006;28;20003;-77
2023/01/20 11:07:45;;;;;;;35.58;15.88;;;2.40;99.90;;;;;;5053280;28;20044;-76
2023/01/20 11:10:17;;;;;;;35.58;15.60;;;2.40;99.90;;;;;;5053566;28;20123;-76
2023/01/20 11:12:46;;;;;;;36.20;15.73;;;2.40;99.90;;;;;;5059185;28;20041;-76
2023/01/20 11:15:32;;;;;;;34.60;15.88;;;2.40;99.90;;;;;;5053713;28;20036;-77
2023/01/20 11:18:13;;;;;;;41.72;17.67;;;2.40;99.90;;;;;;5043579;28;20069;-76
2023/01/20 11:20:49;;;;;;;36.22;15.23;;;2.40;99.90;;;;;;5056103;28;20037;-79
2023/01/20 11:23:37;;;;;;;36.30;15.40;;;2.40;99.90;;;;;;5057777;28;20127;-81
2023/01/20 11:26:26;;;;;;;39.17;15.93;;;2.40;99.90;;;;;;5054325;28;20044;-78
2023/01/20 11:28:51;;;;;;;42.33;17.02;;;2.40;99.90;;;;;;5066166;28;20170;-77
2023/01/20 11:31:18;;;;;;;34.38;15.63;;;2.40;99.90;;;;;;5066878;28;20119;-77
2023/01/20 11:34:12;;;;;;;35.25;15.45;;;2.40;99.90;;;;;;5067713;28;20110;-77
2023/01/20 11:36:38;;;;;;;40.00;15.52;;;2.40;99.90;;;;;;5055930;28;20064;-78
2023/01/20 11:39:07;;;;;;;38.97;16.92;;;2.40;99.90;;;;;;5058096;28;20041;-80
2023/01/20 11:41:33;;;;;;;43.15;17.48;;;2.40;99.90;;;;;;5059929;28;20044;-79
2023/01/20 11:43:59;;;;;;;39.40;16.77;;;2.40;99.90;;;;;;5051350;28;20060;-78
2023/01/20 11:46:32;;;;;;;38.25;16.45;;;2.40;99.90;;;;;;5054882;28;20028;-78
2023/01/20 11:49:18;;;;;;;36.78;16.08;;;2.40;99.90;;;;;;5067766;28;20041;-78
2023/01/20 11:51:54;;;;;;;38.95;17.33;;;2.40;99.90;;;;;;5046639;28;20036;-77
2023/01/20 11:54:27;;;;;;;36.47;16.65;;;2.40;99.90;;;;;;5054139;28;20037;-81
2023/01/20 11:57:06;;;;;;;36.53;16.27;;;2.50;99.90;;;;;;5055605;28;20065;-78
2023/01/20 11:59:35;;;;;;;40.78;16.92;;;2.50;99.90;;;;;;5052684;28;20045;-78
2023/01/20 12:02:23;;;;;;;38.70;16.25;;;2.50;99.90;;;;;;5044934;28;20174;-77
2023/01/20 12:05:42;;;;;;;40.88;17.15;;;2.50;99.90;;;;;;5035864;28;20057;-79
2023/01/20 12:08:16;;;;;;;37.35;15.90;;;2.50;99.90;;;;;;5001323;28;20042;-78
2023/01/20 12:10:43;;;;;;;40.67;16.80;;;2.60;99.90;;;;;;5005951;28;20048;-77
2023/01/20 12:14:18;;;;;;;36.92;18.20;;;2.60;99.90;;;;;;5027677;28;20521;-79
2023/01/20 12:16:26;;;;;;;37.15;18.38;;;2.60;99.90;;;;;;5056201;28;20124;-78
2023/01/20 12:18:56;;;;;;;38.95;15.93;;;2.60;99.90;;;;;;5059670;28;20405;-77
2023/01/20 12:21:28;;;;;;;36.60;16.67;;;2.60;99.90;;;;;;5061498;28;20098;-78
2023/01/20 12:23:56;;;;;;;35.50;16.25;;;2.60;99.90;;;;;;5064624;28;20049;-78
2023/01/20 12:26:23;;;;;;;39.13;16.42;;;2.60;99.90;;;;;;5059334;28;20585;-79
2023/01/20 12:29:11;;;;;;;35.65;17.08;;;2.60;99.90;;;;;;5065888;28;20441;-78
2023/01/20 12:31:36;;;;;;;38.90;17.48;;;2.60;99.90;;;;;;5037863;28;20045;-78
2023/01/20 12:34:11;;;;;;;38.65;16.55;;;2.60;99.90;;;;;;5060988;28;20040;-78
2023/01/20 12:36:40;;;;;;;39.63;16.85;;;2.60;99.90;;;;;;5063873;28;20037;-78
2023/01/20 12:39:27;;;;;;;33.70;15.93;;;2.60;99.90;;;;;;5062048;28;20120;-81
2023/01/20 12:41:59;;;;;;;36.65;15.30;;;2.60;99.90;;;;;;5056166;28;20091;-78
2023/01/20 12:45:07;;;;;;;41.97;18.80;;;2.60;99.90;;;;;;5056505;28;20416;-80
2023/01/20 12:48:04;;;;;;;38.90;18.05;;;2.60;99.90;;;;;;5047294;28;20777;-77
2023/01/20 12:50:54;;;;;;;33.53;16.63;;;2.70;99.90;;;;;;5037889;28;20060;-78
2023/01/20 12:53:57;;;;;;;35.28;18.45;;;2.10;99.90;;;;;;5061088;28;20036;-78
2023/01/20 12:56:30;;;;;;;;;;;2.70;99.90;;;;;;5043246;28;20093;-78
2023/01/20 12:59:12;;;;;;;33.78;14.40;;;2.70;99.90;;;;;;5055961;28;19917;-78
2023/01/20 13:01:49;;;;;;;35.22;15.70;;;2.80;99.90;;;;;;5051836;28;20530;-78
2023/01/20 13:04:41;;;;;;;36.85;16.90;;;2.70;99.90;;;;;;5054923;28;20123;-78
2023/01/20 13:07:19;;;;;;;32.75;15.55;;;2.70;99.90;;;;;;5067993;28;20059;-79
2023/01/20 13:09:51;;;;;;;35.63;16.38;;;2.70;99.90;;;;;;5027902;28;20509;-78
2023/01/20 13:12:42;;;;;;;37.63;16.97;;;2.70;99.90;;;;;;5047398;28;20393;-78